Time;durP1;ratioP1;P1;durP2;ratioP2;P2;SDS_P1;SDS_P2;PMS_P1;PMS_P2;Temp;Humidity;BMP_temperature;BMP_pressure;BME280_temperature;BME280_humidity;BME280_pressure;Samples;Min_cycle;Max_cycle;Signal;HPM_P1;HPM_P2
2021/12/21 00:00:47;;;;;;;9.80;4.30;;;0.10;99.90;;;;;;2603706;54;20019;31
2021/12/21 00:03:21;;;;;;;8.68;4.05;;;0.10;99.90;;;;;;2603010;54;20207;31
2021/12/21 00:05:56;;;;;;;12.80;4.75;;;0.10;99.90;;;;;;2611904;47;20060;31
2021/12/21 00:08:33;;;;;;;11.23;5.20;;;0.10;99.90;;;;;;2602960;54;20896;31
2021/12/21 00:11:22;;;;;;;7.75;4.05;;;0.10;99.90;;;;;;2603705;47;20038;31
2021/12/21 00:17:06;;;;;;;10.38;4.70;;;0.10;99.90;;;;;;2605080;54;20046;31
2021/12/21 00:19:48;;;;;;;8.60;4.10;;;0.00;99.90;;;;;;2606203;54;20027;31
2021/12/21 00:24:59;;;;;;;8.80;3.88;;;0.00;99.90;;;;;;2604788;54;20074;31
2021/12/21 00:27:41;;;;;;;8.07;3.90;;;0.00;99.90;;;;;;2613763;54;20019;31
2021/12/21 00:30:16;;;;;;;11.60;4.65;;;0.10;99.90;;;;;;2607425;54;20108;31
2021/12/21 00:32:49;;;;;;;8.65;4.38;;;0.00;99.90;;;;;;2603834;54;20961;31
2021/12/21 00:35:26;;;;;;;10.55;4.47;;;0.00;99.90;;;;;;2614438;54;20019;31
2021/12/21 00:38:00;;;;;;;10.20;4.50;;;0.00;99.90;;;;;;2624500;39;20981;31
2021/12/21 00:40:37;;;;;;;11.37;5.00;;;0.00;99.90;;;;;;2611220;54;20061;31
2021/12/21 00:43:12;;;;;;;11.55;4.95;;;0.00;99.90;;;;;;2603798;54;20050;31
2021/12/21 00:45:44;;;;;;;15.32;6.30;;;0.00;99.90;;;;;;2610960;54;20843;31
2021/12/21 00:48:17;;;;;;;13.05;6.07;;;0.00;99.90;;;;;;2606286;54;20050;31
2021/12/21 00:50:50;;;;;;;14.40;6.37;;;-0.10;99.90;;;;;;2604535;54;20025;31
2021/12/21 00:53:21;;;;;;;13.68;6.32;;;-0.10;99.90;;;;;;2611635;46;20026;31
2021/12/21 00:55:58;;;;;;;14.80;6.40;;;-0.10;99.90;;;;;;2622814;46;20026;31
2021/12/21 00:58:33;;;;;;;15.65;5.85;;;-0.10;99.90;;;;;;2603612;54;20033;31
2021/12/21 01:01:08;;;;;;;15.27;6.40;;;-0.10;99.90;;;;;;2622238;46;20847;31
2021/12/21 01:03:49;;;;;;;16.00;6.30;;;-0.10;99.90;;;;;;2607787;46;20085;31
2021/12/21 01:06:28;;;;;;;13.13;6.00;;;-0.20;99.90;;;;;;2613065;54;20042;31
2021/12/21 01:09:10;;;;;;;14.15;6.70;;;-0.20;99.90;;;;;;2611676;54;21435;31
2021/12/21 01:11:50;;;;;;;12.05;5.57;;;-0.20;99.90;;;;;;2603611;54;20025;31
2021/12/21 01:17:14;;;;;;;17.13;6.03;;;-0.30;99.90;;;;;;2604432;46;20053;31
2021/12/21 01:19:57;;;;;;;11.82;6.05;;;-0.30;99.90;;;;;;2603666;54;20930;31
2021/12/21 01:22:47;;;;;;;11.00;5.27;;;-0.30;99.90;;;;;;2604095;54;20026;31
2021/12/21 01:25:31;;;;;;;14.13;5.70;;;-0.30;99.90;;;;;;2603696;54;20038;31
2021/12/21 01:28:14;;;;;;;11.35;5.70;;;-0.30;99.90;;;;;;2603571;54;20053;31
2021/12/21 01:30:56;;;;;;;15.15;5.88;;;-0.40;99.90;;;;;;2603619;54;20925;31
2021/12/21 01:33:45;;;;;;;12.00;5.73;;;-0.40;99.90;;;;;;2606915;54;20046;31
2021/12/21 01:36:24;;;;;;;15.05;5.70;;;-0.40;99.90;;;;;;2603674;54;20898;31
2021/12/21 01:39:06;;;;;;;12.77;5.88;;;-0.40;99.90;;;;;;2604883;54;20022;31
2021/12/21 01:41:49;;;;;;;15.90;6.65;;;-0.40;99.90;;;;;;2603682;54;20046;31
2021/12/21 01:44:44;;;;;;;13.75;6.50;;;-0.40;99.90;;;;;;2603768;54;20855;31
2021/12/21 01:50:03;;;;;;;;;;;-0.40;99.90;;;;;;2603558;54;20019;31
2021/12/21 01:52:37;;;;;;;13.10;5.45;;;-0.40;99.90;;;;;;2603653;54;19957;31
2021/12/21 01:55:10;;;;;;;14.63;5.57;;;-0.40;99.90;;;;;;2603605;54;20900;31
2021/12/21 01:57:44;;;;;;;14.75;6.32;;;-0.40;99.90;;;;;;2603555;54;20044;31
2021/12/21 02:00:21;;;;;;;13.70;6.63;;;-0.40;99.90;;;;;;2603649;54;19958;31
2021/12/21 02:02:55;;;;;;;13.15;6.13;;;-0.40;99.90;;;;;;2604853;54;20287;31
2021/12/21 02:05:28;;;;;;;14.40;6.50;;;-0.40;99.90;;;;;;2603958;54;20019;31
2021/12/21 02:08:02;;;;;;;16.25;6.38;;;-0.40;99.90;;;;;;2603700;54;20754;31
2021/12/21 02:10:37;;;;;;;13.65;5.97;;;-0.40;99.90;;;;;;2603557;54;19965;31
2021/12/21 02:13:10;;;;;;;14.00;6.07;;;-0.40;99.90;;;;;;2603526;54;20053;31
2021/12/21 02:15:46;;;;;;;13.05;6.32;;;-0.40;99.90;;;;;;2603441;54;20839;31
2021/12/21 02:21:20;;;;;;;10.20;5.10;;;-0.40;99.90;;;;;;2603568;54;20046;31
2021/12/21 02:23:59;;;;;;;12.50;5.93;;;-0.40;99.90;;;;;;2603413;54;20056;31
2021/12/21 02:29:25;;;;;;;11.57;5.65;;;-0.40;99.90;;;;;;2603558;54;20053;31
2021/12/21 02:32:00;;;;;;;12.20;5.47;;;-0.40;99.90;;;;;;2603377;54;20027;31
2021/12/21 02:34:34;;;;;;;13.23;5.67;;;-0.40;99.90;;;;;;2772783;31;20498;31
2021/12/21 02:37:10;;;;;;;15.25;6.82;;;-0.40;99.90;;;;;;2603364;54;20246;31
2021/12/21 02:39:42;;;;;;;12.65;5.75;;;-0.40;99.90;;;;;;2630872;46;20052;31
2021/12/21 02:42:16;;;;;;;13.30;5.57;;;-0.40;99.90;;;;;;2606629;54;20018;31
2021/12/21 02:44:50;;;;;;;11.52;5.57;;;-0.40;99.90;;;;;;2603449;54;20034;31
2021/12/21 02:47:25;;;;;;;15.52;6.55;;;-0.40;99.90;;;;;;2603731;54;20046;31
2021/12/21 02:49:57;;;;;;;14.73;5.30;;;-0.40;99.90;;;;;;2603214;54;20929;31
2021/12/21 02:52:34;;;;;;;14.05;5.93;;;-0.40;99.90;;;;;;2603409;54;20049;31
2021/12/21 02:55:08;;;;;;;14.47;6.17;;;-0.40;99.90;;;;;;2603363;54;20022;31
2021/12/21 02:57:42;;;;;;;9.88;4.97;;;-0.40;99.90;;;;;;2603308;54;20134;31
2021/12/21 03:00:18;;;;;;;15.45;6.40;;;-0.40;99.90;;;;;;2608743;54;20820;31
2021/12/21 03:02:51;;;;;;;14.40;6.10;;;-0.40;99.90;;;;;;2605034;54;20061;31
2021/12/21 03:05:22;;;;;;;12.88;5.25;;;-0.40;99.90;;;;;;2607765;54;20034;31
2021/12/21 03:08:16;;;;;;;12.77;4.97;;;-0.40;99.90;;;;;;2603161;54;20855;31
2021/12/21 03:11:05;;;;;;;11.15;5.10;;;-0.40;99.90;;;;;;2773064;31;20605;31
2021/12/21 03:14:03;;;;;;;9.85;4.90;;;-0.40;99.90;;;;;;2603350;54;20061;31
2021/12/21 03:16:36;;;;;;;9.93;4.38;;;-0.30;99.90;;;;;;2609577;39;21063;31
2021/12/21 03:19:11;;;;;;;12.63;4.72;;;-0.40;99.90;;;;;;2602884;54;20034;31
2021/12/21 03:21:45;;;;;;;9.23;4.30;;;-0.30;99.90;;;;;;2603160;54;20037;31
2021/12/21 03:24:20;;;;;;;10.80;4.50;;;-0.30;99.90;;;;;;2622155;47;20822;31
2021/12/21 03:26:53;;;;;;;9.17;4.37;;;-0.30;99.90;;;;;;2603210;54;20026;31
2021/12/21 03:29:26;;;;;;;11.35;4.53;;;-0.30;99.90;;;;;;2603286;54;20259;31
2021/12/21 03:32:01;;;;;;;10.13;4.60;;;-0.30;99.90;;;;;;2603382;54;20053;31
2021/12/21 03:34:35;;;;;;;10.48;4.20;;;-0.30;99.90;;;;;;2603362;54;20031;31
2021/12/21 03:37:14;;;;;;;7.93;4.07;;;-0.30;99.90;;;;;;2603049;54;21358;31
2021/12/21 03:39:54;;;;;;;9.85;4.38;;;-0.30;99.90;;;;;;2603965;47;20022;31
2021/12/21 03:42:29;;;;;;;12.88;4.32;;;-0.30;99.90;;;;;;2603882;47;20030;31
2021/12/21 03:45:03;;;;;;;12.68;5.78;;;-0.30;99.90;;;;;;2603000;54;20057;31
2021/12/21 03:47:38;;;;;;;15.90;5.40;;;-0.30;99.90;;;;;;2603359;54;20027;31
2021/12/21 03:50:18;;;;;;;15.07;5.38;;;-0.30;99.90;;;;;;2608907;46;20046;31
2021/12/21 03:52:52;;;;;;;13.75;6.05;;;-0.30;99.90;;;;;;2603862;54;20030;31
2021/12/21 03:55:29;;;;;;;11.40;5.00;;;-0.30;99.90;;;;;;2603859;54;20589;31
2021/12/21 03:58:02;;;;;;;7.47;4.45;;;-0.30;99.90;;;;;;2604240;46;20845;31
2021/12/21 04:00:37;;;;;;;11.52;4.90;;;-0.30;99.90;;;;;;2603712;54;20027;31
2021/12/21 04:03:11;;;;;;;9.50;4.95;;;-0.30;99.90;;;;;;2603744;54;20081;31
2021/12/21 04:05:44;;;;;;;12.57;5.00;;;-0.20;99.90;;;;;;2622484;46;20054;31
2021/12/21 04:08:21;;;;;;;12.65;5.25;;;-0.30;99.90;;;;;;2603784;54;20057;31
2021/12/21 04:10:53;;;;;;;10.57;5.32;;;-0.20;99.90;;;;;;2603951;54;20054;31
2021/12/21 04:13:30;;;;;;;12.50;5.35;;;-0.30;99.90;;;;;;2606962;46;20022;31
2021/12/21 04:16:05;;;;;;;10.73;4.57;;;-0.30;99.90;;;;;;2603962;54;20815;31
2021/12/21 04:18:40;;;;;;;8.53;5.03;;;-0.30;99.90;;;;;;2621903;46;20073;31
2021/12/21 04:21:15;;;;;;;13.18;5.72;;;-0.30;99.90;;;;;;2603686;54;20825;31
2021/12/21 04:23:49;;;;;;;18.90;6.00;;;-0.30;99.90;;;;;;2603783;54;20037;31
2021/12/21 04:26:23;;;;;;;14.98;5.75;;;-0.30;99.90;;;;;;2603949;54;20053;31
2021/12/21 04:29:01;;;;;;;12.38;5.35;;;-0.30;99.90;;;;;;2603648;54;20029;31
2021/12/21 04:31:37;;;;;;;10.40;4.57;;;-0.30;99.90;;;;;;2603812;54;20042;31
2021/12/21 04:34:12;;;;;;;11.32;4.78;;;-0.30;99.90;;;;;;2603830;54;20049;31
2021/12/21 04:36:46;;;;;;;10.70;4.80;;;-0.30;99.90;;;;;;2603706;54;20026;31
2021/12/21 04:39:34;;;;;;;10.73;4.28;;;-0.20;99.90;;;;;;2603570;54;20136;31
2021/12/21 04:42:10;;;;;;;9.48;4.50;;;-0.20;99.90;;;;;;2603707;54;20026;31
2021/12/21 04:44:45;;;;;;;11.23;5.05;;;-0.20;99.90;;;;;;2610318;39;21003;31
2021/12/21 04:47:19;;;;;;;12.07;5.22;;;-0.20;99.90;;;;;;2604382;46;20878;31
2021/12/21 04:49:54;;;;;;;11.20;5.35;;;-0.20;99.90;;;;;;2603463;54;20030;31
2021/12/21 04:52:29;;;;;;;16.75;6.15;;;-0.20;99.90;;;;;;2603746;54;20096;31
2021/12/21 04:55:00;;;;;;;13.95;7.13;;;-0.20;99.90;;;;;;2607765;46;20018;31
2021/12/21 04:57:33;;;;;;;18.85;7.75;;;-0.20;99.90;;;;;;2609968;39;21002;31
2021/12/21 05:00:12;;;;;;;15.95;7.47;;;-0.20;99.90;;;;;;2603728;54;20057;31
2021/12/21 05:02:47;;;;;;;25.87;10.83;;;-0.20;99.90;;;;;;2603892;54;20864;31
2021/12/21 05:05:20;;;;;;;30.23;12.13;;;-0.20;99.90;;;;;;2614249;31;22607;31
2021/12/21 05:08:06;;;;;;;25.65;13.23;;;-0.20;99.90;;;;;;2603788;54;21169;31
2021/12/21 05:10:47;;;;;;;30.77;14.67;;;-0.20;99.90;;;;;;2603531;54;20081;31
2021/12/21 05:13:25;;;;;;;24.53;13.37;;;-0.20;99.90;;;;;;2603611;54;20962;31
2021/12/21 05:16:03;;;;;;;19.95;11.45;;;-0.20;99.90;;;;;;2622295;46;20557;31
2021/12/21 05:18:36;;;;;;;16.95;9.40;;;-0.20;99.90;;;;;;2604352;46;20026;31
2021/12/21 05:21:12;;;;;;;13.30;7.75;;;-0.20;99.90;;;;;;2616243;46;20022;31
2021/12/21 05:23:46;;;;;;;11.40;5.07;;;-0.20;99.90;;;;;;2603723;54;20061;31
2021/12/21 05:26:20;;;;;;;12.40;6.57;;;-0.20;99.90;;;;;;2603823;54;20022;31
2021/12/21 05:28:55;;;;;;;11.82;7.07;;;-0.10;99.90;;;;;;2604353;46;20022;31
2021/12/21 05:31:32;;;;;;;11.10;5.38;;;-0.20;99.90;;;;;;2603673;54;20044;31
2021/12/21 05:34:06;;;;;;;13.90;4.95;;;-0.20;99.90;;;;;;2603504;54;20030;31
2021/12/21 05:36:40;;;;;;;11.02;5.22;;;-0.10;99.90;;;;;;2603623;54;20052;31
2021/12/21 05:39:20;;;;;;;8.88;4.53;;;-0.10;99.90;;;;;;2603565;54;20015;31
2021/12/21 05:41:56;;;;;;;11.13;5.18;;;-0.20;99.90;;;;;;2603546;54;20038;31
2021/12/21 05:44:29;;;;;;;9.90;4.82;;;-0.10;99.90;;;;;;2603489;54;20033;31
2021/12/21 05:47:07;;;;;;;12.30;5.45;;;-0.20;99.90;;;;;;2603598;54;20027;31
2021/12/21 05:49:42;;;;;;;16.90;6.30;;;-0.20;99.90;;;;;;2604302;46;20034;31
2021/12/21 05:52:17;;;;;;;18.30;6.63;;;-0.20;99.90;;;;;;2603358;54;20913;31
2021/12/21 05:54:49;;;;;;;11.75;5.32;;;-0.20;99.90;;;;;;2628873;39;21141;31
2021/12/21 05:57:23;;;;;;;13.80;6.00;;;-0.10;99.90;;;;;;2702153;39;20402;31
2021/12/21 05:59:57;;;;;;;14.23;6.18;;;-0.20;99.90;;;;;;2603556;54;20034;31
2021/12/21 06:02:34;;;;;;;16.67;5.88;;;-0.20;99.90;;;;;;2603638;54;20041;31
2021/12/21 06:05:09;;;;;;;13.82;6.80;;;-0.10;99.90;;;;;;2603444;54;20037;31
2021/12/21 06:07:51;;;;;;;11.45;6.32;;;-0.10;99.90;;;;;;2603571;54;20061;31
2021/12/21 06:10:29;;;;;;;12.83;8.40;;;-0.20;99.90;;;;;;2603043;54;20081;31
2021/12/21 06:13:25;;;;;;;11.77;7.63;;;-0.10;99.90;;;;;;2603295;54;20023;31
2021/12/21 06:16:25;;;;;;;14.85;7.75;;;-0.10;99.90;;;;;;2603413;54;20825;31
2021/12/21 06:27:27;;;;;;;19.65;8.30;;;-0.10;99.90;;;;;;2603579;54;20130;31
2021/12/21 06:30:04;;;;;;;15.75;6.07;;;-0.10;99.90;;;;;;2603574;54;19961;31
2021/12/21 06:32:42;;;;;;;13.07;6.60;;;-0.10;99.90;;;;;;2603464;54;20034;31
2021/12/21 06:35:21;;;;;;;14.55;6.35;;;-0.10;99.90;;;;;;2603294;54;20652;31
2021/12/21 06:37:55;;;;;;;11.68;5.82;;;-0.10;99.90;;;;;;2622284;46;20174;31
2021/12/21 06:40:29;;;;;;;12.55;5.15;;;-0.10;99.90;;;;;;2603541;54;20106;31
2021/12/21 06:43:03;;;;;;;14.13;5.57;;;-0.10;99.90;;;;;;2622099;46;20861;31
2021/12/21 06:45:49;;;;;;;13.52;5.20;;;-0.10;99.90;;;;;;2604070;46;20883;31
2021/12/21 06:51:28;;;;;;;10.82;5.80;;;-0.10;99.90;;;;;;2603237;54;20026;31
2021/12/21 06:54:01;;;;;;;15.55;5.45;;;-0.10;99.90;;;;;;2603501;54;20053;31
2021/12/21 06:56:36;;;;;;;11.20;4.73;;;-0.20;99.90;;;;;;2603360;54;20053;31
2021/12/21 06:59:10;;;;;;;14.23;5.05;;;-0.20;99.90;;;;;;2603449;54;20826;31
2021/12/21 07:01:42;;;;;;;13.23;4.85;;;-0.20;99.90;;;;;;2603629;54;20030;31
2021/12/21 07:04:18;;;;;;;10.67;4.13;;;-0.20;99.90;;;;;;2621369;46;20869;31
2021/12/21 07:06:57;;;;;;;11.63;4.28;;;-0.20;99.90;;;;;;2621834;47;20365;31
2021/12/21 07:09:37;;;;;;;8.02;3.08;;;-0.30;99.90;;;;;;2603128;54;20783;31
2021/12/21 07:20:41;;;;;;;5.82;2.50;;;-0.30;99.90;;;;;;2603474;54;20863;31
2021/12/21 07:23:17;;;;;;;13.88;3.72;;;-0.30;99.90;;;;;;2604593;46;20135;31
2021/12/21 07:28:38;;;;;;;41.47;10.70;;;-0.40;99.90;;;;;;2605307;46;20191;31
2021/12/21 07:31:13;;;;;;;46.08;12.18;;;-0.40;99.90;;;;;;2702365;39;20620;31
2021/12/21 07:33:48;;;;;;;27.25;6.60;;;-0.40;99.90;;;;;;2617961;46;20847;31
2021/12/21 07:36:22;;;;;;;27.17;6.10;;;-0.40;99.90;;;;;;2603186;54;20907;31
2021/12/21 07:39:00;;;;;;;22.50;5.25;;;-0.40;99.90;;;;;;2603855;54;20380;31
2021/12/21 07:41:35;;;;;;;14.80;3.90;;;-0.30;99.90;;;;;;2622590;46;20128;31
2021/12/21 07:44:08;;;;;;;10.15;3.55;;;-0.30;99.90;;;;;;2702545;39;21004;31
2021/12/21 07:46:43;;;;;;;11.00;2.72;;;-0.30;99.90;;;;;;2604062;54;20030;31
2021/12/21 07:49:21;;;;;;;7.45;3.25;;;-0.30;99.90;;;;;;2603902;54;20046;31
2021/12/21 07:51:56;;;;;;;8.13;2.90;;;-0.30;99.90;;;;;;2621957;46;20158;31
2021/12/21 07:54:34;;;;;;;5.90;3.87;;;-0.30;99.90;;;;;;2603826;54;20911;31
2021/12/21 07:57:07;;;;;;;9.45;4.05;;;-0.30;99.90;;;;;;2774026;31;21278;31
2021/12/21 07:59:41;;;;;;;4.82;2.75;;;-0.30;99.90;;;;;;2603773;54;20037;31
2021/12/21 08:02:18;;;;;;;19.75;5.85;;;-0.30;99.90;;;;;;2604042;54;20029;31
2021/12/21 08:04:55;;;;;;;39.77;9.53;;;-0.20;99.90;;;;;;2603980;54;20030;31
2021/12/21 08:07:36;;;;;;;34.25;7.85;;;-0.20;99.90;;;;;;2603727;54;20030;31
2021/12/21 08:10:27;;;;;;;21.42;7.20;;;-0.20;99.90;;;;;;2603849;54;20026;31
2021/12/21 08:13:02;;;;;;;11.25;4.72;;;-0.20;99.90;;;;;;2603812;54;20026;31
2021/12/21 08:15:37;;;;;;;9.80;4.37;;;-0.20;99.90;;;;;;2603687;54;20129;31
2021/12/21 08:18:15;;;;;;;11.45;6.10;;;-0.10;99.90;;;;;;2603860;54;20046;31
2021/12/21 08:20:50;;;;;;;12.50;5.05;;;-0.10;99.90;;;;;;2603829;54;20026;31
2021/12/21 08:23:26;;;;;;;;;;;-0.10;99.90;;;;;;2603878;54;20030;31
2021/12/21 08:26:04;;;;;;;10.32;5.13;;;0.00;99.90;;;;;;2603754;54;19946;31
2021/12/21 08:28:38;;;;;;;9.88;4.50;;;0.00;99.90;;;;;;2603897;54;20880;31
2021/12/21 08:31:14;;;;;;;10.85;5.05;;;0.00;99.90;;;;;;2603799;54;20039;31
2021/12/21 08:33:49;;;;;;;6.85;3.88;;;0.00;99.90;;;;;;2603347;54;20022;31
2021/12/21 08:36:24;;;;;;;7.97;4.70;;;0.10;99.90;;;;;;2603950;54;20047;31
2021/12/21 08:39:07;;;;;;;9.57;3.97;;;0.10;99.90;;;;;;2702381;39;20446;31
2021/12/21 08:41:51;;;;;;;8.20;4.20;;;0.10;99.90;;;;;;2603610;54;20034;31
2021/12/21 08:44:26;;;;;;;8.50;3.35;;;0.10;99.90;;;;;;2603654;54;20871;31
2021/12/21 08:47:28;;;;;;;10.48;3.47;;;0.10;99.90;;;;;;2603615;54;20136;31
2021/12/21 08:50:03;;;;;;;5.35;3.00;;;0.10;99.90;;;;;;2603642;54;20034;31
2021/12/21 08:52:39;;;;;;;10.05;3.97;;;0.20;99.90;;;;;;2603654;54;20031;31
2021/12/21 08:55:17;;;;;;;7.47;3.77;;;0.20;99.90;;;;;;2603622;54;20174;31
2021/12/21 08:57:55;;;;;;;5.35;2.60;;;0.20;99.90;;;;;;2603743;54;20030;31
2021/12/21 09:00:28;;;;;;;5.25;3.10;;;0.40;99.90;;;;;;2603630;54;20170;31
2021/12/21 09:03:06;;;;;;;5.05;3.20;;;0.40;99.90;;;;;;2603636;54;20046;31
2021/12/21 09:05:42;;;;;;;8.70;3.97;;;0.40;99.90;;;;;;2603755;54;20027;31
2021/12/21 09:08:24;;;;;;;11.55;4.63;;;0.50;99.90;;;;;;2603702;54;20896;31
2021/12/21 09:11:04;;;;;;;6.97;3.43;;;0.60;99.90;;;;;;2608712;46;20023;31
2021/12/21 09:13:38;;;;;;;7.85;3.55;;;0.50;99.90;;;;;;2622335;46;20034;31
2021/12/21 09:16:14;;;;;;;6.72;3.38;;;0.60;99.90;;;;;;2621686;46;20874;31
2021/12/21 09:18:48;;;;;;;7.55;3.45;;;0.60;99.90;;;;;;2603332;54;20037;31
2021/12/21 09:21:22;;;;;;;8.65;3.95;;;0.60;99.90;;;;;;2603719;54;20125;31
2021/12/21 09:23:57;;;;;;;7.80;3.30;;;0.60;99.90;;;;;;2621970;46;20030;31
2021/12/21 09:26:31;;;;;;;10.68;4.78;;;0.70;99.90;;;;;;2603662;54;20906;31
2021/12/21 09:29:06;;;;;;;11.30;4.40;;;0.60;99.90;;;;;;2603351;54;20092;31
2021/12/21 09:31:43;;;;;;;8.85;3.20;;;0.70;99.90;;;;;;2603439;54;20899;31
2021/12/21 09:34:18;;;;;;;7.67;3.80;;;0.70;99.90;;;;;;2603142;54;20809;31
2021/12/21 09:36:53;;;;;;;10.60;3.80;;;0.70;99.90;;;;;;2603185;54;20057;31
2021/12/21 09:39:28;;;;;;;6.53;3.17;;;0.80;99.90;;;;;;2603345;54;20046;31
2021/12/21 09:42:03;;;;;;;6.50;3.45;;;0.80;99.90;;;;;;2603343;54;20049;31
2021/12/21 09:44:38;;;;;;;8.37;3.10;;;0.80;99.90;;;;;;2603528;54;20855;31
2021/12/21 09:47:15;;;;;;;5.43;2.92;;;0.90;99.90;;;;;;2603475;54;20160;31
2021/12/21 09:49:50;;;;;;;6.22;3.28;;;0.80;99.90;;;;;;2603268;54;20033;31
2021/12/21 09:52:29;;;;;;;5.55;3.05;;;0.80;99.90;;;;;;2603340;54;20034;31
2021/12/21 09:55:04;;;;;;;6.32;3.40;;;1.00;99.90;;;;;;2603473;54;20128;31
2021/12/21 09:57:39;;;;;;;6.93;3.17;;;0.90;99.90;;;;;;2603485;54;20154;31
2021/12/21 10:00:16;;;;;;;5.70;3.00;;;0.90;99.90;;;;;;2603450;54;20026;31
2021/12/21 10:03:01;;;;;;;5.50;2.92;;;0.90;99.90;;;;;;2603721;54;20029;31
2021/12/21 10:05:37;;;;;;;5.82;3.08;;;1.00;99.90;;;;;;2603432;54;20042;31
2021/12/21 10:08:13;;;;;;;7.13;3.57;;;1.00;99.90;;;;;;2603567;54;20046;31
2021/12/21 10:10:49;;;;;;;7.03;3.15;;;1.00;99.90;;;;;;2603237;54;20027;31
2021/12/21 10:13:25;;;;;;;8.05;3.17;;;1.10;99.90;;;;;;2603303;54;20026;31
2021/12/21 10:16:02;;;;;;;7.63;3.33;;;1.10;99.90;;;;;;2603368;54;20125;31
2021/12/21 10:18:41;;;;;;;5.90;2.65;;;1.20;99.90;;;;;;2603389;54;20037;31
2021/12/21 10:21:18;;;;;;;6.68;3.00;;;1.20;99.90;;;;;;2603246;54;20022;31
2021/12/21 10:23:54;;;;;;;6.78;3.03;;;1.20;99.90;;;;;;2603447;54;20089;31
2021/12/21 10:26:30;;;;;;;4.85;2.70;;;1.30;99.90;;;;;;2603096;54;20930;31
2021/12/21 10:29:08;;;;;;;6.25;3.45;;;1.30;99.90;;;;;;2605683;54;20227;31
2021/12/21 10:31:45;;;;;;;7.55;3.10;;;1.40;99.90;;;;;;2621730;46;20053;31
2021/12/21 10:34:28;;;;;;;7.50;2.97;;;1.50;99.90;;;;;;2603376;54;20033;31
2021/12/21 10:37:04;;;;;;;8.45;2.75;;;1.50;99.90;;;;;;2604791;54;20081;-75
2021/12/21 10:39:39;;;;;;;5.13;2.88;;;1.50;99.90;;;;;;2615997;54;20069;-76
2021/12/21 10:42:14;;;;;;;5.70;2.67;;;1.50;99.90;;;;;;2626024;54;20010;31
2021/12/21 10:44:46;;;;;;;6.15;3.03;;;1.50;99.90;;;;;;2614066;31;22502;31
2021/12/21 10:47:19;;;;;;;7.50;2.72;;;1.50;99.90;;;;;;2604270;46;20023;31
2021/12/21 10:49:57;;;;;;;6.13;3.38;;;1.50;99.90;;;;;;2603077;54;20840;31
2021/12/21 10:52:31;;;;;;;8.05;3.08;;;1.50;99.90;;;;;;2604101;46;20888;31
2021/12/21 10:55:07;;;;;;;5.88;2.70;;;1.40;99.90;;;;;;2603600;54;20665;31
2021/12/21 10:57:43;;;;;;;7.10;3.70;;;1.40;99.90;;;;;;2603323;54;20031;31
2021/12/21 11:00:19;;;;;;;7.40;2.80;;;1.40;99.90;;;;;;2603173;54;20847;31
2021/12/21 11:02:56;;;;;;;11.40;3.20;;;1.40;99.90;;;;;;2603289;54;20896;31
2021/12/21 11:05:42;;;;;;;6.20;2.80;;;1.40;99.90;;;;;;2603037;54;20034;31
2021/12/21 11:08:27;;;;;;;5.82;2.80;;;1.40;99.90;;;;;;2606810;54;20133;31
2021/12/21 11:11:02;;;;;;;8.88;3.67;;;1.40;99.90;;;;;;2603076;54;20030;31
2021/12/21 11:13:36;;;;;;;9.00;3.97;;;1.40;99.90;;;;;;2672787;39;20490;31
2021/12/21 11:16:09;;;;;;;8.60;4.13;;;1.40;99.90;;;;;;2603525;54;21453;31
2021/12/21 11:18:44;;;;;;;10.63;5.15;;;1.40;99.90;;;;;;2602997;54;20096;31
2021/12/21 11:21:23;;;;;;;9.98;5.70;;;1.50;99.90;;;;;;2605576;54;20018;31
2021/12/21 11:23:55;;;;;;;14.63;6.17;;;1.50;99.90;;;;;;2606061;54;20074;31
2021/12/21 11:26:28;;;;;;;14.63;6.15;;;1.50;99.90;;;;;;2621898;47;20822;31
2021/12/21 11:29:03;;;;;;;8.15;4.70;;;1.50;99.90;;;;;;2611900;47;20078;31
2021/12/21 11:31:39;;;;;;;12.65;4.70;;;1.50;99.90;;;;;;2613656;54;20049;31
2021/12/21 11:34:20;;;;;;;10.20;4.70;;;1.50;99.90;;;;;;2605829;54;20018;31
2021/12/21 11:39:44;;;;;;;11.60;5.07;;;1.50;99.90;;;;;;2610023;54;20054;31
2021/12/21 11:42:22;;;;;;;13.70;5.40;;;1.50;99.90;;;;;;2700554;39;20425;31
2021/12/21 11:44:59;;;;;;;10.32;4.90;;;1.50;99.90;;;;;;2602959;54;20061;31
2021/12/21 11:47:40;;;;;;;8.80;4.78;;;1.50;99.90;;;;;;2603160;54;20046;31
2021/12/21 11:50:16;;;;;;;9.60;4.00;;;1.60;99.90;;;;;;2621150;47;20784;31
2021/12/21 11:52:54;;;;;;;11.43;4.53;;;1.60;99.90;;;;;;2603103;54;20034;31
2021/12/21 11:55:28;;;;;;;8.63;4.53;;;1.60;99.90;;;;;;2608938;39;21251;31
2021/12/21 11:58:03;;;;;;;9.15;5.10;;;1.60;99.90;;;;;;2602962;54;20057;31
2021/12/21 12:00:37;;;;;;;12.30;4.25;;;1.60;99.90;;;;;;2791338;31;21464;31
2021/12/21 12:03:13;;;;;;;10.23;5.00;;;1.60;99.90;;;;;;2602880;54;20027;31
2021/12/21 12:05:57;;;;;;;11.40;4.30;;;1.60;99.90;;;;;;2603010;54;20026;31
2021/12/21 12:08:44;;;;;;;12.00;4.82;;;1.60;99.90;;;;;;2603386;54;20911;31
2021/12/21 12:11:28;;;;;;;8.98;4.53;;;1.60;99.90;;;;;;2603678;54;20027;31
2021/12/21 12:14:05;;;;;;;11.65;4.90;;;1.50;99.90;;;;;;2607807;54;20098;31
2021/12/21 12:16:45;;;;;;;12.00;5.80;;;1.50;99.90;;;;;;2603769;54;20039;31
2021/12/21 12:19:19;;;;;;;9.85;5.30;;;1.50;99.90;;;;;;2702465;39;21653;31
2021/12/21 12:21:56;;;;;;;11.18;5.63;;;1.40;99.90;;;;;;2622168;46;20042;31
2021/12/21 12:24:36;;;;;;;13.10;6.60;;;1.40;99.90;;;;;;2604152;54;20157;31
2021/12/21 12:27:11;;;;;;;12.20;6.75;;;1.40;99.90;;;;;;2603917;54;19935;31
2021/12/21 12:29:47;;;;;;;13.05;7.10;;;1.40;99.90;;;;;;2603693;54;20031;31
2021/12/21 12:32:33;;;;;;;16.30;6.45;;;1.30;99.90;;;;;;2603906;54;20943;31
2021/12/21 12:35:10;;;;;;;12.57;6.13;;;1.30;99.90;;;;;;2603764;54;20038;31
2021/12/21 12:37:51;;;;;;;15.30;7.30;;;1.40;99.90;;;;;;2603688;54;20913;31
2021/12/21 12:40:31;;;;;;;18.90;8.60;;;1.40;99.90;;;;;;2603569;54;20033;31
2021/12/21 12:43:08;;;;;;;17.05;7.78;;;1.30;99.90;;;;;;2603793;54;20826;31
2021/12/21 12:45:49;;;;;;;17.80;7.83;;;1.40;99.90;;;;;;2603572;54;20100;31
2021/12/21 12:48:26;;;;;;;14.10;6.23;;;1.40;99.90;;;;;;2603513;54;20800;31
2021/12/21 12:51:04;;;;;;;9.68;4.63;;;1.40;99.90;;;;;;2603676;54;20057;31
2021/12/21 12:53:40;;;;;;;7.13;4.05;;;1.40;99.90;;;;;;2607499;54;20023;31
2021/12/21 12:56:19;;;;;;;5.20;2.80;;;1.30;99.90;;;;;;2603486;54;20899;31
2021/12/21 12:58:52;;;;;;;5.10;2.50;;;1.30;99.90;;;;;;2609946;39;22330;31
2021/12/21 13:01:28;;;;;;;6.93;2.40;;;1.30;99.90;;;;;;2603614;54;20101;31
2021/12/21 13:04:04;;;;;;;;;;;1.20;99.90;;;;;;2602896;54;20085;31
2021/12/21 13:06:39;;;;;;;6.72;3.53;;;1.20;99.90;;;;;;2604604;46;19942;31
2021/12/21 13:09:21;;;;;;;7.03;4.13;;;1.20;99.90;;;;;;2603879;54;20026;31
2021/12/21 13:12:00;;;;;;;12.90;6.28;;;1.10;99.90;;;;;;2603778;31;21624;31
2021/12/21 13:14:35;;;;;;;7.78;4.40;;;1.10;99.90;;;;;;2603623;54;20057;31
2021/12/21 13:17:10;;;;;;;9.05;4.55;;;1.10;99.90;;;;;;2603441;54;20125;31
2021/12/21 13:19:45;;;;;;;9.98;4.80;;;1.10;99.90;;;;;;2605445;46;20054;31
2021/12/21 13:22:24;;;;;;;7.18;3.90;;;1.10;99.90;;;;;;2603683;54;20109;31
2021/12/21 13:24:59;;;;;;;9.00;4.72;;;1.00;99.90;;;;;;2603324;46;20153;31
2021/12/21 13:27:35;;;;;;;9.05;4.00;;;1.00;99.90;;;;;;2603530;54;20027;31
2021/12/21 13:30:13;;;;;;;9.20;4.00;;;1.00;99.90;;;;;;2603412;54;20063;31
2021/12/21 13:32:48;;;;;;;5.32;3.40;;;1.00;99.90;;;;;;2603501;54;20057;31
2021/12/21 13:35:29;;;;;;;11.55;5.80;;;1.10;99.90;;;;;;2602592;54;20057;31
2021/12/21 13:38:04;;;;;;;11.90;5.65;;;1.00;99.90;;;;;;2623506;46;20054;31
2021/12/21 13:40:36;;;;;;;68.03;8.27;;;1.00;99.90;;;;;;2603532;54;20904;31
2021/12/21 13:43:28;;;;;;;9.20;5.83;;;1.00;99.90;;;;;;2603618;54;19938;31
2021/12/21 13:46:02;;;;;;;11.57;6.73;;;1.00;99.90;;;;;;2603519;54;20061;31
2021/12/21 13:48:37;;;;;;;10.63;5.15;;;0.90;99.90;;;;;;2603357;54;20966;31
2021/12/21 13:51:13;;;;;;;12.25;5.25;;;0.90;99.90;;;;;;2603202;54;20077;31
2021/12/21 13:53:47;;;;;;;9.15;5.18;;;0.90;99.90;;;;;;2603418;54;20073;31
2021/12/21 13:56:23;;;;;;;10.60;5.25;;;0.90;99.90;;;;;;2602473;54;20117;31
2021/12/21 13:59:01;;;;;;;8.05;3.92;;;0.90;99.90;;;;;;2603326;54;20109;31
2021/12/21 14:01:37;;;;;;;9.35;4.18;;;0.90;99.90;;;;;;2603617;54;20029;31
2021/12/21 14:04:15;;;;;;;9.27;4.37;;;0.80;99.90;;;;;;2603508;54;20033;31
2021/12/21 14:06:55;;;;;;;9.18;3.55;;;0.80;99.90;;;;;;2602496;54;20026;31
2021/12/21 14:09:29;;;;;;;7.53;4.30;;;0.80;99.90;;;;;;2609567;46;20050;31
2021/12/21 14:12:06;;;;;;;11.20;4.57;;;0.80;99.90;;;;;;2622038;46;20135;31
2021/12/21 14:14:44;;;;;;;10.73;5.10;;;0.80;99.90;;;;;;2622083;46;20799;31
2021/12/21 14:17:19;;;;;;;7.88;3.38;;;0.70;99.90;;;;;;2603184;54;19935;31
2021/12/21 14:19:57;;;;;;;9.52;4.40;;;0.70;99.90;;;;;;2603470;54;20128;31
2021/12/21 14:22:32;;;;;;;9.75;4.15;;;0.90;99.90;;;;;;2603378;54;20030;31
2021/12/21 14:25:17;;;;;;;7.70;3.73;;;1.00;99.90;;;;;;2603222;47;20085;31
2021/12/21 14:27:52;;;;;;;5.93;3.05;;;1.00;99.90;;;;;;2603247;54;20086;31